sensor_id;sensor_type;location;lat;lon;timestamp;temperature;humidity
38866;DHT22;62686;48.984;8.394;2023-05-21T00:00:51;15.40;99.90
38866;DHT22;62686;48.984;8.394;2023-05-21T00:03:19;15.40;99.90
38866;DHT22;62686;48.984;8.394;2023-05-21T00:05:47;15.40;99.90
38866;DHT22;62686;48.984;8.394;2023-05-21T00:08:16;15.30;99.90
38866;DHT22;62686;48.984;8.394;2023-05-21T00:10:45;15.30;99.90
38866;DHT22;62686;48.984;8.394;2023-05-21T00:13:14;15.20;99.90
38866;DHT22;62686;48.984;8.394;2023-05-21T00:15:42;15.20;99.90
38866;DHT22;62686;48.984;8.394;2023-05-21T00:18:10;15.20;99.90
38866;DHT22;62686;48.984;8.394;2023-05-21T00:20:38;15.10;99.90
38866;DHT22;62686;48.984;8.394;2023-05-21T00:23:07;15.10;99.90
38866;DHT22;62686;48.984;8.394;2023-05-21T00:25:36;15.00;99.90
38866;DHT22;62686;48.984;8.394;2023-05-21T00:28:05;15.00;99.90
38866;DHT22;62686;48.984;8.394;2023-05-21T00:30:33;15.00;99.90
38866;DHT22;62686;48.984;8.394;2023-05-21T00:33:02;15.00;99.90
38866;DHT22;62686;48.984;8.394;2023-05-21T00:35:30;15.10;99.90
38866;DHT22;62686;48.984;8.394;2023-05-21T00:37:58;15.00;99.90
38866;DHT22;62686;48.984;8.394;2023-05-21T00:40:26;15.00;99.90
38866;DHT22;62686;48.984;8.394;2023-05-21T00:42:55;15.10;99.90
38866;DHT22;62686;48.984;8.394;2023-05-21T00:45:25;15.10;99.90
38866;DHT22;62686;48.984;8.394;2023-05-21T00:47:53;15.10;99.90
38866;DHT22;62686;48.984;8.394;2023-05-21T00:50:22;15.10;99.90
38866;DHT22;62686;48.984;8.394;2023-05-21T00:52:50;15.10;99.90
38866;DHT22;62686;48.984;8.394;2023-05-21T00:55:19;15.10;99.90
38866;DHT22;62686;48.984;8.394;2023-05-21T00:57:47;15.10;99.90
38866;DHT22;62686;48.984;8.394;2023-05-21T01:00:15;15.00;99.90
38866;DHT22;62686;48.984;8.394;2023-05-21T01:02:45;15.00;99.90
38866;DHT22;62686;48.984;8.394;2023-05-21T01:05:13;14.90;99.90
38866;DHT22;62686;48.984;8.394;2023-05-21T01:07:42;14.90;99.90
38866;DHT22;62686;48.984;8.394;2023-05-21T01:10:10;14.80;99.90
38866;DHT22;62686;48.984;8.394;2023-05-21T01:12:40;14.80;99.90
38866;DHT22;62686;48.984;8.394;2023-05-21T01:15:10;14.70;99.90
38866;DHT22;62686;48.984;8.394;2023-05-21T01:17:39;14.70;99.90
38866;DHT22;62686;48.984;8.394;2023-05-21T01:20:09;14.70;99.90
38866;DHT22;62686;48.984;8.394;2023-05-21T01:25:11;14.60;99.90
38866;DHT22;62686;48.984;8.394;2023-05-21T01:27:40;14.60;99.90
38866;DHT22;62686;48.984;8.394;2023-05-21T01:30:09;14.60;99.90
38866;DHT22;62686;48.984;8.394;2023-05-21T01:32:41;14.60;99.90
38866;DHT22;62686;48.984;8.394;2023-05-21T01:35:13;14.70;99.90
38866;DHT22;62686;48.984;8.394;2023-05-21T01:37:47;14.70;99.90
38866;DHT22;62686;48.984;8.394;2023-05-21T01:40:24;14.70;99.90
38866;DHT22;62686;48.984;8.394;2023-05-21T01:42:53;14.70;99.90
38866;DHT22;62686;48.984;8.394;2023-05-21T01:45:23;14.70;99.90
38866;DHT22;62686;48.984;8.394;2023-05-21T01:47:53;14.70;99.90
38866;DHT22;62686;48.984;8.394;2023-05-21T01:50:23;14.60;99.90
38866;DHT22;62686;48.984;8.394;2023-05-21T01:52:52;14.60;99.90
38866;DHT22;62686;48.984;8.394;2023-05-21T01:55:22;14.60;99.90
38866;DHT22;62686;48.984;8.394;2023-05-21T01:57:51;14.60;99.90
38866;DHT22;62686;48.984;8.394;2023-05-21T02:00:20;14.50;99.90
38866;DHT22;62686;48.984;8.394;2023-05-21T02:02:49;14.50;99.90
38866;DHT22;62686;48.984;8.394;2023-05-21T02:05:18;14.50;99.90
38866;DHT22;62686;48.984;8.394;2023-05-21T02:07:47;14.50;99.90
38866;DHT22;62686;48.984;8.394;2023-05-21T02:10:17;14.50;99.90
38866;DHT22;62686;48.984;8.394;2023-05-21T02:12:47;14.50;99.90
38866;DHT22;62686;48.984;8.394;2023-05-21T02:15:15;14.40;99.90
38866;DHT22;62686;48.984;8.394;2023-05-21T02:17:44;14.50;99.90
38866;DHT22;62686;48.984;8.394;2023-05-21T02:20:12;14.40;99.90
38866;DHT22;62686;48.984;8.394;2023-05-21T02:22:43;14.30;99.90
38866;DHT22;62686;48.984;8.394;2023-05-21T02:25:12;14.30;99.90
38866;DHT22;62686;48.984;8.394;2023-05-21T02:27:42;14.30;99.90
38866;DHT22;62686;48.984;8.394;2023-05-21T02:30:14;14.30;99.90
38866;DHT22;62686;48.984;8.394;2023-05-21T02:32:43;14.20;99.90
38866;DHT22;62686;48.984;8.394;2023-05-21T02:35:12;14.10;99.90
38866;DHT22;62686;48.984;8.394;2023-05-21T02:37:40;14.00;99.90
38866;DHT22;62686;48.984;8.394;2023-05-21T02:40:10;13.90;99.90
38866;DHT22;62686;48.984;8.394;2023-05-21T02:42:39;13.90;99.90
38866;DHT22;62686;48.984;8.394;2023-05-21T02:45:09;13.80;99.90
38866;DHT22;62686;48.984;8.394;2023-05-21T02:47:39;13.70;99.90
38866;DHT22;62686;48.984;8.394;2023-05-21T02:50:08;13.60;99.90
38866;DHT22;62686;48.984;8.394;2023-05-21T02:52:36;13.50;99.90
38866;DHT22;62686;48.984;8.394;2023-05-21T02:55:05;13.40;99.90
38866;DHT22;62686;48.984;8.394;2023-05-21T02:57:33;13.30;99.90
38866;DHT22;62686;48.984;8.394;2023-05-21T03:00:02;13.20;99.90
38866;DHT22;62686;48.984;8.394;2023-05-21T03:02:31;13.30;99.90
38866;DHT22;62686;48.984;8.394;2023-05-21T03:05:01;13.20;99.90
38866;DHT22;62686;48.984;8.394;2023-05-21T03:07:29;13.10;99.90
38866;DHT22;62686;48.984;8.394;2023-05-21T03:09:58;13.10;99.90
38866;DHT22;62686;48.984;8.394;2023-05-21T03:12:26;13.00;99.90
38866;DHT22;62686;48.984;8.394;2023-05-21T03:14:54;13.00;99.90
38866;DHT22;62686;48.984;8.394;2023-05-21T03:17:22;12.90;99.90
38866;DHT22;62686;48.984;8.394;2023-05-21T03:19:51;12.80;99.90
38866;DHT22;62686;48.984;8.394;2023-05-21T03:22:21;12.80;99.90
38866;DHT22;62686;48.984;8.394;2023-05-21T03:24:50;12.70;99.90
38866;DHT22;62686;48.984;8.394;2023-05-21T03:27:19;12.60;99.90
38866;DHT22;62686;48.984;8.394;2023-05-21T03:29:47;12.50;99.90
38866;DHT22;62686;48.984;8.394;2023-05-21T03:32:16;12.50;99.90
38866;DHT22;62686;48.984;8.394;2023-05-21T03:34:44;12.40;99.90
38866;DHT22;62686;48.984;8.394;2023-05-21T03:37:12;12.40;99.90
38866;DHT22;62686;48.984;8.394;2023-05-21T03:39:42;12.40;99.90
38866;DHT22;62686;48.984;8.394;2023-05-21T03:42:10;12.30;99.90
38866;DHT22;62686;48.984;8.394;2023-05-21T03:44:39;12.30;99.90
38866;DHT22;62686;48.984;8.394;2023-05-21T03:47:07;12.30;99.90
38866;DHT22;62686;48.984;8.394;2023-05-21T03:49:36;12.30;99.90
38866;DHT22;62686;48.984;8.394;2023-05-21T03:52:04;12.20;99.90
38866;DHT22;62686;48.984;8.394;2023-05-21T03:54:32;12.20;99.90
38866;DHT22;62686;48.984;8.394;2023-05-21T03:57:02;12.20;99.90
38866;DHT22;62686;48.984;8.394;2023-05-21T03:59:30;12.20;99.90
38866;DHT22;62686;48.984;8.394;2023-05-21T04:01:58;12.20;99.90
38866;DHT22;62686;48.984;8.394;2023-05-21T04:04:27;12.20;99.90
38866;DHT22;62686;48.984;8.394;2023-05-21T04:06:56;12.20;99.90
38866;DHT22;62686;48.984;8.394;2023-05-21T04:09:24;12.20;99.90
38866;DHT22;62686;48.984;8.394;2023-05-21T04:11:53;12.20;99.90
38866;DHT22;62686;48.984;8.394;2023-05-21T04:14:23;12.10;99.90
38866;DHT22;62686;48.984;8.394;2023-05-21T04:16:51;12.10;99.90
38866;DHT22;62686;48.984;8.394;2023-05-21T04:19:19;12.10;99.90
38866;DHT22;62686;48.984;8.394;2023-05-21T04:21:48;12.10;99.90
38866;DHT22;62686;48.984;8.394;2023-05-21T04:24:16;12.20;99.90
38866;DHT22;62686;48.984;8.394;2023-05-21T04:26:44;12.20;99.90
38866;DHT22;62686;48.984;8.394;2023-05-21T04:29:14;12.30;99.90
38866;DHT22;62686;48.984;8.394;2023-05-21T04:31:45;12.40;99.90
38866;DHT22;62686;48.984;8.394;2023-05-21T04:34:13;12.40;99.90
38866;DHT22;62686;48.984;8.394;2023-05-21T04:36:43;12.60;99.90
38866;DHT22;62686;48.984;8.394;2023-05-21T04:39:12;12.70;99.90
38866;DHT22;62686;48.984;8.394;2023-05-21T04:41:41;12.80;99.90
38866;DHT22;62686;48.984;8.394;2023-05-21T04:44:10;12.90;99.90
38866;DHT22;62686;48.984;8.394;2023-05-21T04:46:40;13.20;99.90
38866;DHT22;62686;48.984;8.394;2023-05-21T04:49:13;13.30;99.90
38866;DHT22;62686;48.984;8.394;2023-05-21T04:51:41;13.50;99.90
38866;DHT22;62686;48.984;8.394;2023-05-21T04:54:10;13.70;99.90
38866;DHT22;62686;48.984;8.394;2023-05-21T04:57:01;14.00;99.90
38866;DHT22;62686;48.984;8.394;2023-05-21T04:59:51;14.30;99.90
38866;DHT22;62686;48.984;8.394;2023-05-21T05:02:40;14.60;99.90
38866;DHT22;62686;48.984;8.394;2023-05-21T05:05:25;15.00;99.90
38866;DHT22;62686;48.984;8.394;2023-05-21T05:07:54;15.40;99.90
38866;DHT22;62686;48.984;8.394;2023-05-21T05:10:24;15.90;99.90
38866;DHT22;62686;48.984;8.394;2023-05-21T05:12:52;16.30;99.90
38866;DHT22;62686;48.984;8.394;2023-05-21T05:15:20;16.90;99.90
38866;DHT22;62686;48.984;8.394;2023-05-21T05:17:48;17.50;99.90
38866;DHT22;62686;48.984;8.394;2023-05-21T05:20:17;18.00;99.90
38866;DHT22;62686;48.984;8.394;2023-05-21T05:22:47;18.50;99.90
38866;DHT22;62686;48.984;8.394;2023-05-21T05:25:18;18.90;99.90
38866;DHT22;62686;48.984;8.394;2023-05-21T05:27:46;19.30;99.90
38866;DHT22;62686;48.984;8.394;2023-05-21T05:30:15;19.70;99.90
38866;DHT22;62686;48.984;8.394;2023-05-21T05:32:43;20.00;99.90
38866;DHT22;62686;48.984;8.394;2023-05-21T05:35:12;20.30;99.90
38866;DHT22;62686;48.984;8.394;2023-05-21T05:37:40;20.50;99.90
38866;DHT22;62686;48.984;8.394;2023-05-21T05:40:10;21.00;99.90
38866;DHT22;62686;48.984;8.394;2023-05-21T05:42:38;21.40;99.90
38866;DHT22;62686;48.984;8.394;2023-05-21T05:45:08;21.60;99.90
38866;DHT22;62686;48.984;8.394;2023-05-21T05:47:36;21.40;99.90
38866;DHT22;62686;48.984;8.394;2023-05-21T05:50:05;21.60;99.90
38866;DHT22;62686;48.984;8.394;2023-05-21T05:52:34;21.70;99.90
38866;DHT22;62686;48.984;8.394;2023-05-21T05:55:02;22.10;99.90
38866;DHT22;62686;48.984;8.394;2023-05-21T05:57:32;22.30;99.90
38866;DHT22;62686;48.984;8.394;2023-05-21T06:00:00;22.40;99.90
38866;DHT22;62686;48.984;8.394;2023-05-21T06:02:28;22.30;99.90
38866;DHT22;62686;48.984;8.394;2023-05-21T06:04:56;22.00;99.90
38866;DHT22;62686;48.984;8.394;2023-05-21T06:07:25;21.90;99.90
38866;DHT22;62686;48.984;8.394;2023-05-21T06:09:53;21.80;99.90
38866;DHT22;62686;48.984;8.394;2023-05-21T06:12:21;21.60;99.90
38866;DHT22;62686;48.984;8.394;2023-05-21T06:14:52;21.40;99.90
38866;DHT22;62686;48.984;8.394;2023-05-21T06:17:21;21.10;99.90
38866;DHT22;62686;48.984;8.394;2023-05-21T06:19:49;20.90;99.90
38866;DHT22;62686;48.984;8.394;2023-05-21T06:22:17;20.60;99.90
38866;DHT22;62686;48.984;8.394;2023-05-21T06:24:45;20.50;99.90
38866;DHT22;62686;48.984;8.394;2023-05-21T06:27:13;20.50;99.90
38866;DHT22;62686;48.984;8.394;2023-05-21T06:29:41;20.60;99.90
38866;DHT22;62686;48.984;8.394;2023-05-21T06:32:11;20.60;99.90
38866;DHT22;62686;48.984;8.394;2023-05-21T06:34:39;20.60;99.90
38866;DHT22;62686;48.984;8.394;2023-05-21T06:37:08;20.70;99.90
38866;DHT22;62686;48.984;8.394;2023-05-21T06:39:36;20.60;99.90
38866;DHT22;62686;48.984;8.394;2023-05-21T06:42:06;20.80;99.90
38866;DHT22;62686;48.984;8.394;2023-05-21T06:44:34;20.90;99.90
38866;DHT22;62686;48.984;8.394;2023-05-21T06:47:02;21.10;99.90
38866;DHT22;62686;48.984;8.394;2023-05-21T06:49:32;21.00;99.90
38866;DHT22;62686;48.984;8.394;2023-05-21T06:52:00;21.30;99.90
38866;DHT22;62686;48.984;8.394;2023-05-21T06:54:36;21.50;99.90
38866;DHT22;62686;48.984;8.394;2023-05-21T06:57:36;21.70;99.90
38866;DHT22;62686;48.984;8.394;2023-05-21T07:00:05;22.00;99.90
38866;DHT22;62686;48.984;8.394;2023-05-21T07:02:34;22.40;99.90
38866;DHT22;62686;48.984;8.394;2023-05-21T07:05:05;22.30;99.90
38866;DHT22;62686;48.984;8.394;2023-05-21T07:07:33;22.50;99.90
38866;DHT22;62686;48.984;8.394;2023-05-21T07:10:03;22.80;99.90
38866;DHT22;62686;48.984;8.394;2023-05-21T07:12:31;23.10;99.90
38866;DHT22;62686;48.984;8.394;2023-05-21T07:15:00;23.50;99.90
38866;DHT22;62686;48.984;8.394;2023-05-21T07:17:30;23.60;99.90
38866;DHT22;62686;48.984;8.394;2023-05-21T07:23:42;23.70;99.90
38866;DHT22;62686;48.984;8.394;2023-05-21T07:26:13;23.10;99.90
38866;DHT22;62686;48.984;8.394;2023-05-21T07:28:58;23.20;99.90
38866;DHT22;62686;48.984;8.394;2023-05-21T07:31:29;23.40;99.90
38866;DHT22;62686;48.984;8.394;2023-05-21T07:39:17;23.70;99.90
38866;DHT22;62686;48.984;8.394;2023-05-21T07:41:50;23.60;99.90
38866;DHT22;62686;48.984;8.394;2023-05-21T07:44:20;23.80;99.90
38866;DHT22;62686;48.984;8.394;2023-05-21T07:46:54;24.40;99.90
38866;DHT22;62686;48.984;8.394;2023-05-21T07:49:36;24.70;99.90
38866;DHT22;62686;48.984;8.394;2023-05-21T07:52:24;24.50;99.90
38866;DHT22;62686;48.984;8.394;2023-05-21T07:55:13;23.70;99.90
38866;DHT22;62686;48.984;8.394;2023-05-21T08:03:00;22.90;99.90
38866;DHT22;62686;48.984;8.394;2023-05-21T08:05:32;22.80;99.90
38866;DHT22;62686;48.984;8.394;2023-05-21T08:08:16;23.10;99.90
38866;DHT22;62686;48.984;8.394;2023-05-21T08:10:53;24.00;99.90
38866;DHT22;62686;48.984;8.394;2023-05-21T08:13:22;25.40;99.90
38866;DHT22;62686;48.984;8.394;2023-05-21T08:15:56;26.90;99.90
38866;DHT22;62686;48.984;8.394;2023-05-21T08:18:37;28.00;99.90
38866;DHT22;62686;48.984;8.394;2023-05-21T08:21:13;29.10;99.90
38866;DHT22;62686;48.984;8.394;2023-05-21T08:23:46;30.00;99.90
38866;DHT22;62686;48.984;8.394;2023-05-21T08:26:17;30.60;99.90
38866;DHT22;62686;48.984;8.394;2023-05-21T08:29:04;30.20;99.90
38866;DHT22;62686;48.984;8.394;2023-05-21T08:31:33;29.60;99.90
38866;DHT22;62686;48.984;8.394;2023-05-21T08:34:06;28.70;99.90
38866;DHT22;62686;48.984;8.394;2023-05-21T08:36:34;28.40;99.90
38866;DHT22;62686;48.984;8.394;2023-05-21T08:39:02;28.70;99.90
38866;DHT22;62686;48.984;8.394;2023-05-21T08:42:10;29.40;99.90
38866;DHT22;62686;48.984;8.394;2023-05-21T08:45:06;30.60;99.90
38866;DHT22;62686;48.984;8.394;2023-05-21T08:47:57;30.90;99.90
38866;DHT22;62686;48.984;8.394;2023-05-21T08:50:32;31.10;99.90
38866;DHT22;62686;48.984;8.394;2023-05-21T08:53:25;31.20;99.90
38866;DHT22;62686;48.984;8.394;2023-05-21T08:56:08;31.30;99.90
38866;DHT22;62686;48.984;8.394;2023-05-21T08:58:40;31.10;99.90
38866;DHT22;62686;48.984;8.394;2023-05-21T09:01:17;30.90;99.90
38866;DHT22;62686;48.984;8.394;2023-05-21T09:03:54;30.90;99.70
38866;DHT22;62686;48.984;8.394;2023-05-21T09:06:34;30.30;99.90
38866;DHT22;62686;48.984;8.394;2023-05-21T09:09:08;29.80;99.90
38866;DHT22;62686;48.984;8.394;2023-05-21T09:11:38;30.00;99.90
38866;DHT22;62686;48.984;8.394;2023-05-21T09:14:10;30.00;99.90
38866;DHT22;62686;48.984;8.394;2023-05-21T09:16:39;29.90;99.90
38866;DHT22;62686;48.984;8.394;2023-05-21T09:19:07;29.90;99.90
38866;DHT22;62686;48.984;8.394;2023-05-21T09:21:35;30.00;99.90
38866;DHT22;62686;48.984;8.394;2023-05-21T09:24:08;30.40;99.90
38866;DHT22;62686;48.984;8.394;2023-05-21T09:26:36;29.90;99.90
38866;DHT22;62686;48.984;8.394;2023-05-21T09:29:12;29.80;99.90
38866;DHT22;62686;48.984;8.394;2023-05-21T09:31:42;29.70;99.90
38866;DHT22;62686;48.984;8.394;2023-05-21T09:34:11;29.40;99.90
38866;DHT22;62686;48.984;8.394;2023-05-21T09:36:40;29.50;99.90
38866;DHT22;62686;48.984;8.394;2023-05-21T09:39:09;29.60;99.90
38866;DHT22;62686;48.984;8.394;2023-05-21T09:41:42;30.00;99.90
38866;DHT22;62686;48.984;8.394;2023-05-21T09:44:11;30.00;99.90
38866;DHT22;62686;48.984;8.394;2023-05-21T09:46:40;29.70;99.90
38866;DHT22;62686;48.984;8.394;2023-05-21T09:49:21;29.30;99.90
38866;DHT22;62686;48.984;8.394;2023-05-21T09:51:54;28.80;99.90
38866;DHT22;62686;48.984;8.394;2023-05-21T09:54:22;28.70;99.90
38866;DHT22;62686;48.984;8.394;2023-05-21T09:56:51;28.70;99.90
38866;DHT22;62686;48.984;8.394;2023-05-21T09:59:20;28.60;99.90
38866;DHT22;62686;48.984;8.394;2023-05-21T10:01:50;28.80;99.90
38866;DHT22;62686;48.984;8.394;2023-05-21T10:04:18;29.40;99.90
38866;DHT22;62686;48.984;8.394;2023-05-21T11:11:46;28.50;99.60
38866;DHT22;62686;48.984;8.394;2023-05-21T11:17:49;27.60;99.90
38866;DHT22;62686;48.984;8.394;2023-05-21T11:20:19;27.40;99.90
38866;DHT22;62686;48.984;8.394;2023-05-21T11:36:48;29.40;95.80
38866;DHT22;62686;48.984;8.394;2023-05-21T11:39:18;29.10;96.60
38866;DHT22;62686;48.984;8.394;2023-05-21T11:50:45;31.20;96.00
38866;DHT22;62686;48.984;8.394;2023-05-21T12:26:41;28.70;98.70
38866;DHT22;62686;48.984;8.394;2023-05-21T12:32:14;28.00;97.60
38866;DHT22;62686;48.984;8.394;2023-05-21T12:47:24;28.80;96.20
38866;DHT22;62686;48.984;8.394;2023-05-21T12:49:55;28.80;96.80
38866;DHT22;62686;48.984;8.394;2023-05-21T12:52:24;28.20;97.40
38866;DHT22;62686;48.984;8.394;2023-05-21T12:58:20;28.20;98.00
38866;DHT22;62686;48.984;8.394;2023-05-21T13:01:06;28.60;97.10
38866;DHT22;62686;48.984;8.394;2023-05-21T13:20:17;28.10;97.20
38866;DHT22;62686;48.984;8.394;2023-05-21T13:22:56;27.60;96.80
38866;DHT22;62686;48.984;8.394;2023-05-21T13:44:24;27.80;97.80
38866;DHT22;62686;48.984;8.394;2023-05-21T14:03:51;28.20;97.30
38866;DHT22;62686;48.984;8.394;2023-05-21T14:09:41;28.10;96.30
38866;DHT22;62686;48.984;8.394;2023-05-21T14:35:17;28.10;97.00
38866;DHT22;62686;48.984;8.394;2023-05-21T14:37:47;28.20;95.90
38866;DHT22;62686;48.984;8.394;2023-05-21T14:51:55;29.00;96.10
38866;DHT22;62686;48.984;8.394;2023-05-21T15:03:16;30.00;93.40
38866;DHT22;62686;48.984;8.394;2023-05-21T15:06:06;30.20;94.60
38866;DHT22;62686;48.984;8.394;2023-05-21T16:07:32;28.60;95.50
38866;DHT22;62686;48.984;8.394;2023-05-21T16:13:41;28.60;94.70
38866;DHT22;62686;48.984;8.394;2023-05-21T16:16:40;28.60;95.00
38866;DHT22;62686;48.984;8.394;2023-05-21T16:25:09;28.90;94.30
38866;DHT22;62686;48.984;8.394;2023-05-21T16:34:02;28.30;94.70
38866;DHT22;62686;48.984;8.394;2023-05-21T16:39:26;28.10;95.40
38866;DHT22;62686;48.984;8.394;2023-05-21T16:42:41;28.10;95.30
38866;DHT22;62686;48.984;8.394;2023-05-21T16:45:46;27.90;96.70
38866;DHT22;62686;48.984;8.394;2023-05-21T16:48:32;27.80;95.90
38866;DHT22;62686;48.984;8.394;2023-05-21T16:54:04;27.50;97.40
38866;DHT22;62686;48.984;8.394;2023-05-21T16:56:55;27.30;97.50
38866;DHT22;62686;48.984;8.394;2023-05-21T17:02:30;27.30;97.60
38866;DHT22;62686;48.984;8.394;2023-05-21T17:05:15;27.10;99.40
38866;DHT22;62686;48.984;8.394;2023-05-21T17:07:56;27.00;99.30
38866;DHT22;62686;48.984;8.394;2023-05-21T17:10:32;26.90;98.50
38866;DHT22;62686;48.984;8.394;2023-05-21T17:13:06;26.80;99.20
38866;DHT22;62686;48.984;8.394;2023-05-21T17:15:57;26.60;99.90
38866;DHT22;62686;48.984;8.394;2023-05-21T17:19:22;26.50;99.00
38866;DHT22;62686;48.984;8.394;2023-05-21T17:22:06;26.30;99.90
38866;DHT22;62686;48.984;8.394;2023-05-21T17:24:38;26.20;99.90
38866;DHT22;62686;48.984;8.394;2023-05-21T17:30:20;26.20;99.90
38866;DHT22;62686;48.984;8.394;2023-05-21T17:33:06;26.10;99.90
38866;DHT22;62686;48.984;8.394;2023-05-21T17:36:02;26.00;99.90
38866;DHT22;62686;48.984;8.394;2023-05-21T17:38:35;26.00;99.90
38866;DHT22;62686;48.984;8.394;2023-05-21T17:41:10;25.90;99.90
38866;DHT22;62686;48.984;8.394;2023-05-21T17:43:42;25.90;99.90
38866;DHT22;62686;48.984;8.394;2023-05-21T17:46:21;25.70;99.90
38866;DHT22;62686;48.984;8.394;2023-05-21T17:48:51;25.60;99.90
38866;DHT22;62686;48.984;8.394;2023-05-21T17:51:31;25.40;99.90
38866;DHT22;62686;48.984;8.394;2023-05-21T17:54:04;25.30;99.90
38866;DHT22;62686;48.984;8.394;2023-05-21T17:56:38;25.10;99.90
38866;DHT22;62686;48.984;8.394;2023-05-21T17:59:13;24.90;99.90
38866;DHT22;62686;48.984;8.394;2023-05-21T18:01:44;24.70;99.90
38866;DHT22;62686;48.984;8.394;2023-05-21T18:04:16;24.60;99.90
38866;DHT22;62686;48.984;8.394;2023-05-21T18:06:50;24.50;99.90
38866;DHT22;62686;48.984;8.394;2023-05-21T18:09:23;24.40;99.90
38866;DHT22;62686;48.984;8.394;2023-05-21T18:25:28;23.30;99.90
38866;DHT22;62686;48.984;8.394;2023-05-21T18:28:07;23.10;99.90
38866;DHT22;62686;48.984;8.394;2023-05-21T18:30:40;22.80;99.90
38866;DHT22;62686;48.984;8.394;2023-05-21T18:33:21;22.60;99.90
38866;DHT22;62686;48.984;8.394;2023-05-21T18:35:51;22.30;99.90
38866;DHT22;62686;48.984;8.394;2023-05-21T18:38:23;22.10;99.90
38866;DHT22;62686;48.984;8.394;2023-05-21T18:40:58;21.90;99.90
38866;DHT22;62686;48.984;8.394;2023-05-21T18:43:35;21.70;99.90
38866;DHT22;62686;48.984;8.394;2023-05-21T18:46:15;21.50;99.90
38866;DHT22;62686;48.984;8.394;2023-05-21T18:49:05;21.20;99.90
38866;DHT22;62686;48.984;8.394;2023-05-21T18:51:40;20.90;99.90
38866;DHT22;62686;48.984;8.394;2023-05-21T18:54:13;20.70;99.90
38866;DHT22;62686;48.984;8.394;2023-05-21T18:56:57;20.50;99.90
38866;DHT22;62686;48.984;8.394;2023-05-21T18:59:37;20.20;99.90
38866;DHT22;62686;48.984;8.394;2023-05-21T19:02:11;20.00;99.90
38866;DHT22;62686;48.984;8.394;2023-05-21T19:04:44;19.80;99.90
38866;DHT22;62686;48.984;8.394;2023-05-21T19:07:18;19.60;99.90
38866;DHT22;62686;48.984;8.394;2023-05-21T19:09:54;19.40;99.90
38866;DHT22;62686;48.984;8.394;2023-05-21T19:24:33;18.50;99.90
38866;DHT22;62686;48.984;8.394;2023-05-21T19:29:46;18.30;99.90
38866;DHT22;62686;48.984;8.394;2023-05-21T19:32:19;18.10;99.90
38866;DHT22;62686;48.984;8.394;2023-05-21T19:35:23;18.10;99.90
38866;DHT22;62686;48.984;8.394;2023-05-21T19:40:46;17.90;99.90
38866;DHT22;62686;48.984;8.394;2023-05-21T19:43:19;17.80;99.90
38866;DHT22;62686;48.984;8.394;2023-05-21T19:46:04;17.70;99.90
38866;DHT22;62686;48.984;8.394;2023-05-21T20:25:29;16.80;99.90
38866;DHT22;62686;48.984;8.394;2023-05-21T20:28:02;16.80;99.90
38866;DHT22;62686;48.984;8.394;2023-05-21T20:30:51;16.80;99.90
38866;DHT22;62686;48.984;8.394;2023-05-21T20:33:25;16.70;99.90
38866;DHT22;62686;48.984;8.394;2023-05-21T20:35:58;16.70;99.90
38866;DHT22;62686;48.984;8.394;2023-05-21T20:38:33;16.60;99.90
38866;DHT22;62686;48.984;8.394;2023-05-21T20:41:09;16.60;99.90
38866;DHT22;62686;48.984;8.394;2023-05-21T20:43:39;16.50;99.90
38866;DHT22;62686;48.984;8.394;2023-05-21T20:46:15;16.50;99.90
38866;DHT22;62686;48.984;8.394;2023-05-21T20:48:51;16.40;99.90
38866;DHT22;62686;48.984;8.394;2023-05-21T20:51:26;16.50;99.90
38866;DHT22;62686;48.984;8.394;2023-05-21T20:53:56;16.50;99.90
38866;DHT22;62686;48.984;8.394;2023-05-21T20:56:28;16.60;99.90
38866;DHT22;62686;48.984;8.394;2023-05-21T20:59:06;16.50;99.90
38866;DHT22;62686;48.984;8.394;2023-05-21T21:01:37;16.40;99.90
38866;DHT22;62686;48.984;8.394;2023-05-21T21:04:06;16.30;99.90
38866;DHT22;62686;48.984;8.394;2023-05-21T21:06:35;16.20;99.90
38866;DHT22;62686;48.984;8.394;2023-05-21T21:09:06;16.20;99.90
38866;DHT22;62686;48.984;8.394;2023-05-21T21:11:37;16.10;99.90
38866;DHT22;62686;48.984;8.394;2023-05-21T21:14:06;16.10;99.90
38866;DHT22;62686;48.984;8.394;2023-05-21T21:16:38;16.00;99.90
38866;DHT22;62686;48.984;8.394;2023-05-21T21:19:08;16.00;99.90
38866;DHT22;62686;48.984;8.394;2023-05-21T21:21:37;15.90;99.90
38866;DHT22;62686;48.984;8.394;2023-05-21T21:24:07;15.90;99.90
38866;DHT22;62686;48.984;8.394;2023-05-21T21:26:38;15.90;99.90
38866;DHT22;62686;48.984;8.394;2023-05-21T21:29:09;16.00;99.90
38866;DHT22;62686;48.984;8.394;2023-05-21T21:31:38;16.00;99.90
38866;DHT22;62686;48.984;8.394;2023-05-21T21:34:08;15.90;99.90
38866;DHT22;62686;48.984;8.394;2023-05-21T21:36:38;15.90;99.90
38866;DHT22;62686;48.984;8.394;2023-05-21T21:39:11;15.80;99.90
38866;DHT22;62686;48.984;8.394;2023-05-21T21:41:44;15.80;99.90
38866;DHT22;62686;48.984;8.394;2023-05-21T21:44:14;15.80;99.90
38866;DHT22;62686;48.984;8.394;2023-05-21T21:46:47;15.70;99.90
38866;DHT22;62686;48.984;8.394;2023-05-21T21:49:16;15.70;99.90
38866;DHT22;62686;48.984;8.394;2023-05-21T21:51:46;15.60;99.90
38866;DHT22;62686;48.984;8.394;2023-05-21T21:54:16;15.60;99.90
38866;DHT22;62686;48.984;8.394;2023-05-21T21:56:47;15.50;99.90
38866;DHT22;62686;48.984;8.394;2023-05-21T21:59:18;15.40;99.90
38866;DHT22;62686;48.984;8.394;2023-05-21T22:01:47;15.40;99.90
38866;DHT22;62686;48.984;8.394;2023-05-21T22:04:32;15.30;99.90
38866;DHT22;62686;48.984;8.394;2023-05-21T22:07:00;15.30;99.90
38866;DHT22;62686;48.984;8.394;2023-05-21T22:09:30;15.30;99.90
38866;DHT22;62686;48.984;8.394;2023-05-21T22:12:01;15.20;99.90
38866;DHT22;62686;48.984;8.394;2023-05-21T22:14:37;15.30;99.90
38866;DHT22;62686;48.984;8.394;2023-05-21T22:17:11;15.30;99.90
38866;DHT22;62686;48.984;8.394;2023-05-21T22:19:43;15.30;99.90
38866;DHT22;62686;48.984;8.394;2023-05-21T22:22:14;15.20;99.90
38866;DHT22;62686;48.984;8.394;2023-05-21T22:24:43;15.20;99.90
38866;DHT22;62686;48.984;8.394;2023-05-21T22:27:17;15.20;99.90
38866;DHT22;62686;48.984;8.394;2023-05-21T22:29:54;15.10;99.90
38866;DHT22;62686;48.984;8.394;2023-05-21T22:32:29;15.00;99.90
38866;DHT22;62686;48.984;8.394;2023-05-21T22:35:01;14.90;99.90
38866;DHT22;62686;48.984;8.394;2023-05-21T22:37:32;14.90;99.90
38866;DHT22;62686;48.984;8.394;2023-05-21T22:40:07;14.80;99.90
38866;DHT22;62686;48.984;8.394;2023-05-21T22:42:52;14.80;99.90
38866;DHT22;62686;48.984;8.394;2023-05-21T22:45:23;14.70;99.90
38866;DHT22;62686;48.984;8.394;2023-05-21T22:47:55;14.70;99.90
38866;DHT22;62686;48.984;8.394;2023-05-21T22:50:28;14.60;99.90
38866;DHT22;62686;48.984;8.394;2023-05-21T22:53:01;14.60;99.90
38866;DHT22;62686;48.984;8.394;2023-05-21T22:55:34;14.50;99.90
38866;DHT22;62686;48.984;8.394;2023-05-21T22:58:09;14.50;99.90